Tiempo atmosférico en la estación meteorológica de Lanzarote Aeropuerto, Las Palmas (14 m.)



Fecha
DESCASC
Temp. máxima en grados centígrados (hora)
DESCASC
Temp. mínima en grados centígrados (hora)
DESCASC
Temp. media en grados centígrados
DESCASC
Racha de viento máxima en m/sg (hora)
DESCASC
Velocidad máxima media en intervalos de 10 minutos(hora)
DESCASC
Precipitaciones diarias en mm
DESCASC
Precipitaciones de 00:00 a 06:00 en mm
DESCASC
Precipitaciones de 06:00 a 12:00 en mm
DESCASC
Precipitaciones de 12:00 a 18:00 en mm
DESCASC
Precipitaciones de 18:00 a 24:00 en mm
DESCASC
29-03-2020 20.9 (13:10) 12.6 (07:30) 16.8 6.67 (11:00) 3.89 (00:40) 0 0 0 0 0
28-03-2020 20.9 (11:20) 12.7 (06:00) 16.8 7.22 (11:10) 5.28 (12:30) 0 0 0 0 0
27-03-2020 22.1 (11:10) 14.3 (05:00) 18.2 11.39 (07:50) 8.33 (09:00) 0 0 0 0 0
26-03-2020 20.5 (11:00) 12.4 (00:00) 16.4 10.28 (22:50) 7.22 (22:50) 0.4 0 0 0 0.4
25-03-2020 22.5 (12:30) 13.4 (00:00) 17.9 11.39 (16:40) 8.33 (17:00) 0 0 0 0 0
24-03-2020 22.1 (13:30) 14.2 (00:00) 18.2 15.28 (12:40) 10.28 (10:30) 5.6 0.3 5.3 0 0
23-03-2020 20.7 (15:20) 11.8 (00:00) 16.3 15 (13:00) 11.11 (13:00) 3.6 1.6 0.6 0 1.4
22-03-2020 22.3 (16:10) 14.3 (05:10) 18.3 13.33 (17:30) 8.61 (17:40) 0.7 0 0 0 0.7
21-03-2020 21.5 (12:40) 15.2 (00:00) 18.3 12.78 (16:00) 9.17 (15:00) 0 0 0 0 0
20-03-2020 23.3 (13:00) 15.7 (00:00) 19.5 13.33 (13:00) 10 (16:20) 0.1 0 0 0 0.1
19-03-2020 23.1 (14:00) 14.9 (00:00) 19 18.61 (16:50) 14.17 (17:10) 0.6 0.6 0 0 0
18-03-2020 21.5 (14:10) 13.7 (00:00) 17.6 18.06 (20:10) 11.94 (20:10) 0.3 0 0.1 0 0.2
17-03-2020 21.5 (13:40) 13.8 (00:00) 17.7 18.06 (08:20) 13.33 (08:20) 0 0 0 0 0
16-03-2020 23 (14:10) 16.1 (00:00) 19.6 16.94 (16:40) 13.06 (16:40) 0 0 0 0 0
15-03-2020 22.6 (11:50) 13.8 (00:00) 18.2 13.89 (16:40) 10.28 (23:50) 0 0 0 0 0
14-03-2020 22.7 (15:20) 14.5 (00:00) 18.6 14.44 (21:30) 8.33 (08:50) 0 0 0 0 0
13-03-2020 24 (12:30) 14.6 (04:20) 19.3 14.44 (16:10) 9.44 (09:50) 0 0 0 0 0
12-03-2020 26.6 (11:20) 15.4 (00:00) 21 13.33 (17:50) 7.78 (18:10) 0 0 0 0 0
11-03-2020 23.1 (18:30) 12.3 (00:00) 17.7 10.28 (00:10) 6.67 (00:10) 0 0 0 0 0
10-03-2020 25 (16:50) 15.2 (00:00) 20.1 11.39 (12:50) 8.06 (04:40) 0 0 0 0 0
09-03-2020 27.6 (12:50) 15.4 (00:00) 21.5 15.28 (01:40) 7.5 (17:50) 0 0 0 0 0
08-03-2020 27 (17:10) 15.7 (00:00) 21.3 16.11 (20:00) 10.56 (19:40) 0 0 0 0 0
07-03-2020 24.3 (14:40) 16.1 (00:00) 20.2 18.61 (03:10) 13.89 (03:40) 0 0 0 0 0
06-03-2020 23.1 (14:10) 16.5 (00:00) 19.8 18.89 (12:40) 14.17 (10:10) 0 0 0 0 0
05-03-2020 23.7 (14:40) 16 (00:00) 19.9 13.89 (15:30) 10.83 (16:30) 0 0 0 0 0
04-03-2020 26.9 (13:50) 16.5 (00:00) 21.7 15 (06:40) 11.11 (06:40) 0 0 0 0 0
03-03-2020 25.4 (13:50) 16.5 (00:00) 20.9 15 (15:10) 12.22 (15:20) 0 0 0 0 0
02-03-2020 24.6 (12:50) 17 (00:00) 20.8 15 (14:20) 10.28 (16:50) 0 0 0 0 0
01-03-2020 24.8 (13:40) 14.9 (00:00) 19.8 12.5 (12:40) 7.5 (15:40) 0 0 0 0 0
29-02-2020 24.3 (13:40) 15.4 (00:00) 19.8 12.78 (19:40) 9.17 (17:00) 0 0 0 0 0

Gráficas

Temp. máximas Temp. mínimas Temp. medias Precipitaciones Rachas de viento máximas Velocidades máximas media en intervalos de 10 minutos

Datos horarios

Fecha y hora oficial Temperatura (ºC) Velocidad del viento (km/h) Dirección del viento Racha (km/h) Dirección de racha Precipitación (mm) Presión (hPa) Tendencia (hPa) Humedad (%)
2020-03-29 23:00:00 16.4 9 Noroeste 15 Noroeste 0 1016.3 0.8 78
2020-03-29 22:00:00 17.2 10 Noroeste 17 Noroeste 0 1015.9 0.4 71
2020-03-29 21:00:00 17.7 11 Norte 17 Norte 0 1015.5 -0.1 69
2020-03-29 20:00:00 18.1 11 Este 18 Este 0 1015.5 -0.1 72
2020-03-29 19:00:00 18.6 12 Este 18 Este 0 1015.5 -0.4 70
2020-03-29 18:00:00 18.9 13 Este 18 Este 0 1015.6 -1 69
2020-03-29 17:00:00 19.3 10 Sudeste 15 Este 0 1015.6 -1.7 67
2020-03-29 16:00:00 19.5 8 Sudeste 17 Sudeste 0 1015.9 -1.5 66
2020-03-29 15:00:00 20 10 Sudeste 18 Sur 0 1016.6 -1 65
2020-03-29 14:00:00 19.4 10 Sudeste 18 Sudeste 0 1017.3 -0.3 66
2020-03-29 13:00:00 20 12 Sudeste 17 Sudeste 0 1017.4 -0.1 64
2020-03-29 12:00:00 19.4 13 Sudeste 18 Sudeste 0 1017.6 0.6 66
2020-03-29 11:00:00 19.7 10 Este 24 Este 0 1017.6 0.9 64
2020-03-29 10:00:00 18.7 9 Norte 15 Norte 0 1017.5 1.2 65
2020-03-29 09:00:00 15.8 9 Norte 13 Norte 0 1017 0.8 82
2020-03-29 08:00:00 13 9 Noroeste 15 Norte 0 1016.7 0.5 89
2020-03-29 07:00:00 12.9 9 Norte 15 Noroeste 0 1016.3 -0.1 88
2020-03-29 06:00:00 13.6 13 Noroeste 15 Noroeste 0 1016.2 -0.9 87
2020-03-29 05:00:00 14.1 11 Noroeste 13 Noroeste 0 1016.2 -1.4 86
2020-03-29 04:00:00 13.7 11 Noroeste 13 Noroeste 0 1016.4 -1.3 88
2020-03-29 00:00:00 14 7 Norte 13 Norte 0 1017.7 0.5 87
2020-03-28 23:00:00 15.1 10 Norte 13 Norte 0 1017.8 1.5 83
2020-03-28 22:00:00 16 8 Norte 15 Norte 0 1017.8 2.1 79
2020-03-28 21:00:00 16.8 7 Norte 13 Norte 0 1017.2 2 76
2020-03-28 20:00:00 17.3 8 Norte 22 Noroeste 0 1016.3 1.4 74
2020-03-28 19:00:00 18.5 15 Noroeste 26 Norte 0 1015.7 1.1 65
2020-03-28 18:00:00 18.6 10 Este 18 Este 0 1015.2 0.6 72
2020-03-28 17:00:00 19 11 Este 18 Este 0 1014.9 -0.1 70
2020-03-28 16:00:00 19.1 8 Sudeste 13 Este 0 1014.6 -0.5 70
2020-03-28 15:00:00 18.9 7 Sudeste 13 Sudeste 0 1014.6 -0.6 71
2020-03-28 14:00:00 18.5 8 Sudeste 22 Este 0 1015 -0.3 74
2020-03-28 13:00:00 18.9 18 Este 26 Este 0 1015.1 -0.1 66
2020-03-28 12:00:00 20.3 18 Este 26 Este 0 1015.2 0.4 67
2020-03-28 11:00:00 20.3 15 Este 22 Este 0 1015.3 1.3 65
2020-03-28 10:00:00 19.5 10 Este 21 Norte 0 1015.2 1.5 64
2020-03-28 09:00:00 17.9 12 Nordeste 18 Nordeste 0 1014.8 1.9 69
2020-03-28 08:00:00 16.5 9 Norte 13 Norte 0 1014 1.4 80
2020-03-28 07:00:00 13.8 10 Noroeste 11 Noroeste 0 1013.7 1.5 87
2020-03-28 06:00:00 12.8 5 Norte 9 Norte 0 1012.9 0.6 89
2020-03-28 05:00:00 13.3 6 Norte 13 Norte 0 1012.6 -0.1 89
2020-03-28 04:00:00 13.9 6 Nordeste 11 Norte 0 1012.2 -0.4 87
2020-03-28 03:00:00 14 3 Norte 11 Norte 0 1012.3 -0.8 87
2020-03-28 02:00:00 14.3 9 Norte 11 Nordeste 0 1012.7 -0.4 86
2020-03-28 01:00:00 15.5 8 Norte 13 Norte 0 1012.6 -0.3 81
2020-03-28 00:00:00 15.6 8 Sudoeste 17 Norte 0 1013.1 0.5 80
2020-03-27 23:00:00 16.1 9 Noroeste 13 Norte 0 1013.1 1.3 79
2020-03-27 22:00:00 16.2 5 Norte 15 Noroeste 0 1012.9 1.8 76
2020-03-27 21:00:00 17.2 11 Noroeste 15 Noroeste 0 1012.6 1.7 73
2020-03-27 20:00:00 18 12 Noroeste 17 Noroeste 0 1011.8 1.2 67
2020-03-27 19:00:00 18.7 14 Noroeste 22 Noroeste 0 1011.1 0.7 62
2020-03-27 18:00:00 19.6 13 Oeste 24 Oeste 0 1010.9 0.3 61
2020-03-27 17:00:00 19.8 5 Norte 24 Norte 0 1010.6 -0.2 62
2020-03-27 16:00:00 19.5 12 Sudeste -- -- -- 1010.4 -0.7 65
2020-03-27 15:00:00 19.6 14 Este 26 Este 0 1010.6 -1.1 67
2020-03-27 14:00:00 20 17 Este 28 Norte 0 1010.8 -0.8 67
2020-03-27 13:00:00 21.7 24 Noroeste 39 Noroeste 0 1011.1 -0.3 49
2020-03-27 12:00:00 21.3 21 Noroeste 33 Noroeste 0 1011.7 1 50
2020-03-27 11:00:00 21.5 24 Norte 37 Norte 0 1011.6 1.3 52
2020-03-27 10:00:00 20.5 23 Noroeste 39 Noroeste 0 1011.4 1.4 56
2020-03-27 09:00:00 18.8 30 Noroeste 39 Norte 0 1010.7 1.1 68
2020-03-27 08:00:00 16.8 24 Noroeste 41 Noroeste 0 1010.3 0.4 76
2020-03-27 07:00:00 16.2 20 Noroeste 33 Noroeste 0 1010 -0.1 80
2020-03-27 06:00:00 15.5 21 Noroeste 30 Noroeste 0 1009.6 -1 82
2020-03-27 05:00:00 14.5 2 Sudoeste 18 Sudeste 0 1009.9 -1.4 84
2020-03-27 04:00:00 15.3 10 Oeste 21 Oeste 0 1010.1 -1.4 84
2020-03-27 03:00:00 15.2 5 Noroeste 13 Sudeste 0 1010.6 -1.1 83
2020-03-27 02:00:00 15.2 10 Sudoeste 15 Sudoeste 0 1011.3 -0.5 83
2020-03-27 01:00:00 16.3 8 Sur 18 Sur 0 1011.5 -0.3 78
2020-03-27 00:00:00 16.2 9 Norte 26 Norte 0.1 1011.7 -0.3 82
2020-03-26 23:00:00 16.5 23 Norte 37 Norte 0.3 1011.8 0.3 85
2020-03-26 22:00:00 16.8 17 Norte 30 Norte 0 1011.8 0.5 75
2020-03-26 21:00:00 17.3 14 Noroeste 28 Norte 0 1012 1.2 75
2020-03-26 20:00:00 17.6 17 Norte 30 Norte 0 1011.5 0.4 71
2020-03-26 19:00:00 18.3 20 Noroeste 33 Noroeste 0 1011.3 0.2 65
2020-03-26 18:00:00 20 23 Noroeste 35 Norte 0 1010.8 -0.9 57
2020-03-26 17:00:00 19.5 8 Noroeste 17 Noroeste 0 1011.1 -1.1 59
2020-03-26 16:00:00 19.1 9 Sudeste 15 Este 0 1011.1 -1.8 63
2020-03-26 15:00:00 18.5 12 Este 17 Este 0 1011.7 -1.5 68
2020-03-26 14:00:00 19.1 8 Sudeste 17 Sur 0 1012.2 -1.2 64
2020-03-26 13:00:00 18.6 12 Sur 22 Sur 0 1012.9 -0.5 71
2020-03-26 12:00:00 19.6 13 Sudoeste 26 Norte 0 1013.2 -0.1 61
2020-03-26 11:00:00 20.2 16 Norte 24 Noroeste 0 1013.4 0.1 52
2020-03-26 10:00:00 20.3 11 Norte 26 Noroeste 0 1013.4 0.6 54
2020-03-26 09:00:00 17.9 17 Norte 22 Norte 0 1013.3 1.1 65
2020-03-26 08:00:00 16.1 6 Este 13 Este 0 1013.3 1.4 73
2020-03-26 07:00:00 13.2 3 Nordeste 17 Norte 0 1012.8 0.7 84
2020-03-26 06:00:00 13.2 10 Norte 17 Nordeste 0 1012.2 -0.4 85
2020-03-26 05:00:00 13.5 9 Nordeste 17 Norte 0 1011.9 -1.8 84
2020-03-26 04:00:00 13.4 10 Nordeste 17 Norte 0 1012.1 -2.2 85
2020-03-26 03:00:00 13.6 10 Norte 21 Noroeste 0 1012.6 -2.1 82
2020-03-26 02:00:00 14.2 13 Norte 21 Norte 0 1013.7 -1.2 81
2020-03-26 01:00:00 13.9 12 Norte 17 Noroeste 0 1014.3 -0.6 82
2020-03-26 00:00:00 14 9 Norte 11 Norte 0 1014.7 0.3 85
2020-03-25 23:00:00 14.5 6 Norte 15 Norte 0 1014.9 1 81
2020-03-25 22:00:00 15.5 14 Norte 18 Norte 0 1014.9 1.6 76
2020-03-25 21:00:00 16.2 11 Norte 24 Norte 0 1014.4 1.4 73
2020-03-25 20:00:00 16.9 16 Norte 33 Norte 0 1013.9 0.8 70
2020-03-25 19:00:00 18 26 Norte 37 Norte 0 1013.3 -0.4 66
2020-03-25 18:00:00 19.6 26 Norte 39 Norte 0 1013 -1.3 54
2020-03-25 17:00:00 20.7 30 Norte 41 Norte 0 1013.1 -1.4 53
2020-03-25 16:00:00 19.5 21 Norte 30 Norte 0 1013.7 -1.1 54
2020-03-25 15:00:00 18.9 6 Sur 17 Sur 0 1014.3 -0.7 62
2020-03-25 14:00:00 19.1 9 Sur 28 Noroeste 0 1014.5 -0.8 62
2020-03-25 13:00:00 20.6 20 Norte 35 Norte 0 1014.8 -0.5 50
2020-03-25 12:00:00 20.9 24 Norte 35 Norte 0 1015 0.3 50
2020-03-25 11:00:00 20.4 19 Norte 33 Norte 0 1015.3 1.2 51
2020-03-25 10:00:00 19.1 24 Norte 35 Norte 0 1015.3 1.7 59
2020-03-25 09:00:00 18.4 26 Norte 35 Norte 0 1014.7 2 63
2020-03-25 08:00:00 15.9 18 Norte 24 Norte 0 1014.1 1.2 76
2020-03-25 07:00:00 13.8 12 Norte 26 Norte 0 1013.6 0.5 82
2020-03-25 06:00:00 14.4 13 Norte 24 Norte 0 1012.7 -0.5 80
2020-03-25 05:00:00 13.4 10 Norte 13 Norte 0 1012.9 -0.6 85
2020-03-25 04:00:00 15 11 Norte 17 Norte 0 1013.1 -1.1 81
2020-03-25 03:00:00 15.3 14 Norte 26 Norte 0 1013.2 -1.4 80
2020-03-25 02:00:00 15.6 14 Norte 26 Norte 0 1013.5 -1.2 80
2020-03-25 01:00:00 15.6 15 Norte 21 Norte 0 1014.2 -0.5 79
2020-03-25 00:00:00 15.4 5 Norte 13 Norte 0 1014.6 0.3 80
2020-03-24 23:00:00 16.1 9 Norte 21 Norte 0 1014.7 1 77
2020-03-24 22:00:00 16.3 8 Norte 17 Norte 0 1014.7 1.5 78
2020-03-24 21:00:00 16.3 8 Norte 45 Norte 0 1014.3 1.7 75
2020-03-24 20:00:00 17 29 Norte 46 Norte 0 1013.7 1.4 72
2020-03-24 19:00:00 18.1 25 Noroeste 41 Noroeste 0 1013.2 0.9 64
2020-03-24 18:00:00 19.6 30 Noroeste 50 Noroeste 0 1012.6 0.3 59
2020-03-24 17:00:00 20.8 31 Noroeste 54 Noroeste 0 1012.3 -0.3 52
2020-03-24 16:00:00 21.7 33 Noroeste 52 Noroeste 0 1012.3 -0.8 48
2020-03-24 15:00:00 21.2 33 Noroeste 52 Norte 0 1012.3 -1 53
2020-03-24 14:00:00 21.8 33 Noroeste 52 Noroeste 0 1012.6 -0.5 47
2020-03-24 13:00:00 21.3 36 Norte 55 Noroeste 0 1013.1 0.1 54
2020-03-24 12:00:00 20.5 32 Norte 52 Norte 0 1013.3 0.7 61
2020-03-24 11:00:00 19.3 35 Noroeste 54 Noroeste 0 1013.1 1 67
2020-03-24 10:00:00 17.6 26 Noroeste 46 Noroeste 5.3 1013 1.7 81
2020-03-24 09:00:00 17.8 21 Noroeste 39 Noroeste 0 1012.6 1.5 75
2020-03-24 08:00:00 16.7 23 Noroeste 39 Norte 0 1012.1 1.3 80
2020-03-24 07:00:00 15.8 21 Noroeste 32 Norte 0 1011.3 0.8 78
2020-03-24 06:00:00 15.5 15 Noroeste 26 Noroeste 0 1011.1 0.4 79
2020-03-24 05:00:00 15.3 15 Noroeste 26 Norte 0 1010.8 -0.3 78
2020-03-24 04:00:00 15.3 15 Norte 30 Norte 0 1010.5 -0.7 75
2020-03-24 03:00:00 14.8 13 Norte 30 Norte 0 1010.7 -0.5 80
2020-03-24 02:00:00 15.1 17 Norte 35 Norte 0.3 1011.1 -0.1 84
2020-03-24 01:00:00 15.8 18 Norte 30 Noroeste 0 1011.2 0.3 81
2020-03-24 00:00:00 14.9 15 Norte 32 Norte 1.4 1011.2 1 91
2020-03-23 23:00:00 16.9 24 Norte 37 Noroeste 0 1011.2 1.9 69
2020-03-23 22:00:00 16.6 24 Norte 39 Norte 0 1010.9 2.2 70
2020-03-23 21:00:00 16.5 22 Norte 42 Norte 0 1010.2 2 68
2020-03-23 20:00:00 16.9 30 Norte 41 Norte 0 1009.3 1.6 69
2020-03-23 19:00:00 17.5 28 Norte 46 Norte 0 1008.7 1.3 70
2020-03-23 18:00:00 18.7 35 Norte 50 Norte 0 1008.2 0.7 66
2020-03-23 17:00:00 19.5 35 Norte 54 Norte 0 1007.7 0 60
2020-03-23 16:00:00 20.2 33 Norte 54 Norte 0 1007.4 -0.6 56
2020-03-23 15:00:00 20.4 32 Norte 50 Norte 0 1007.5 -0.8 55
2020-03-23 14:00:00 20 37 Norte 54 Norte 0 1007.7 -0.5 54
2020-03-23 13:00:00 19.4 40 Norte 54 Norte 0 1008 0.4 58
2020-03-23 12:00:00 18.8 33 Norte 45 Norte 0.5 1008.3 1.7 63
2020-03-23 11:00:00 17.5 32 Norte 41 Norte 0.1 1008.2 1.7 68
2020-03-23 10:00:00 17.8 24 Norte 33 Norte 0 1007.6 1.7 63
2020-03-23 09:00:00 16.1 22 Norte 32 Norte 0 1006.6 1.1 74
2020-03-23 08:00:00 13.3 5 Nordeste 21 Norte 0 1006.5 1 86
2020-03-23 07:00:00 12.2 13 Norte 18 Norte 0 1005.9 0.4 88
2020-03-23 06:00:00 12.5 12 Noroeste 24 Norte 0 1005.5 -0.4 87
2020-03-23 05:00:00 12.4 13 Norte 37 Oeste 1.6 1005.5 -1.1 88
2020-03-23 04:00:00 13.8 10 Noroeste 21 Oeste 0 1005.5 -1.8 82
2020-03-23 03:00:00 13.9 17 Noroeste 24 Oeste 0 1005.9 -2 83
2020-03-23 02:00:00 14.3 9 Oeste 17 Oeste 0 1006.6 -2 82
2020-03-23 01:00:00 14.8 16 Oeste 28 Oeste 0 1007.3 -1.7 84
2020-03-23 00:00:00 14.8 6 Sudoeste 15 Oeste 0 1007.9 -1.4 86
2020-03-22 23:00:00 15.4 9 Oeste 11 Oeste 0.6 1008.6 -0.2 87
2020-03-22 22:00:00 15.7 6 Sudoeste 18 Sudoeste 0 1009 0.2 78
2020-03-22 21:00:00 16.2 9 Oeste 32 Oeste 0 1009.3 0.2 75
2020-03-22 20:00:00 16.5 12 Oeste 33 Noroeste 0 1008.8 -0.1 71
2020-03-22 19:00:00 16.3 19 Oeste 39 Oeste 0.1 1008.8 -0.6 83
2020-03-22 18:00:00 17.4 20 Oeste 48 Oeste 0 1009.1 -1.2 78
2020-03-22 17:00:00 21 28 Oeste 45 Oeste 0 1008.9 -2.3 49
2020-03-22 16:00:00 21.9 21 Oeste 45 Oeste 0 1009.4 -2.8 44
2020-03-22 15:00:00 21.5 24 Oeste 46 Oeste 0 1010.3 -2.7 40
2020-03-22 14:00:00 21.3 22 Oeste 39 Oeste 0 1011.2 -2.7 45
2020-03-22 13:00:00 20.8 21 Oeste 37 Oeste 0 1012.2 -2 48
2020-03-22 12:00:00 21 17 Oeste 32 Oeste 0 1013 -0.9 41
2020-03-22 11:00:00 20.2 17 Noroeste 33 Noroeste 0 1013.9 -0.1 46
2020-03-22 10:00:00 19.4 15 Noroeste 37 Noroeste 0 1014.2 0.3 51
2020-03-22 09:00:00 18.3 14 Noroeste 22 Norte 0 1013.9 0.1 54
2020-03-22 08:00:00 16.1 14 Noroeste 21 Noroeste 0 1014 -0.1 60
2020-03-22 07:00:00 14.9 12 Noroeste 30 Norte 0 1013.9 -0.5 63
2020-03-22 06:00:00 15.1 15 Noroeste 24 Noroeste 0 1013.8 -1.3 64
2020-03-22 05:00:00 14.4 5 Noroeste 24 Norte 0 1014.1 -1.8 71
2020-03-22 04:00:00 15.7 12 Noroeste 22 Norte 0 1014.4 -1.9 66
2020-03-22 03:00:00 15.8 13 Noroeste 26 Noroeste 0 1015.1 -1.6 59
2020-03-22 02:00:00 14.7 10 Norte 26 Norte 0 1015.9 -1.3 65
2020-03-22 01:00:00 15.4 13 Norte 26 Norte 0 1016.3 -1.1 57
2020-03-22 00:00:00 15.7 12 Norte 24 Norte 0 1016.7 -0.5 61
2020-03-21 23:00:00 15.8 13 Norte 26 Norte 0 1017.2 0.4 62
2020-03-21 22:00:00 15.9 11 Norte 33 Noroeste 0 1017.4 0.9 60
2020-03-21 21:00:00 16 13 Norte 30 Noroeste 0 1017.2 0.6 54
2020-03-21 20:00:00 16.4 19 Norte 39 Norte 0 1016.8 0.2 56
2020-03-21 19:00:00 17.5 28 Norte 41 Norte 0 1016.5 -0.2 55
2020-03-21 18:00:00 18.6 27 Norte 46 Noroeste 0 1016.6 -0.6 50
2020-03-21 17:00:00 18.8 27 Norte 46 Norte 0 1016.6 -1.2 50
2020-03-21 16:00:00 20.3 30 Norte 46 Norte 0 1016.7 -2 41
2020-03-21 15:00:00 19.9 33 Norte 45 Norte 0 1017.2 -2.2 49
2020-03-21 14:00:00 20.3 26 Norte 45 Norte 0 1017.8 -1.9 45
2020-03-21 13:00:00 20.7 27 Norte 45 Norte 0 1018.7 -0.9 40
2020-03-21 12:00:00 19.3 23 Noroeste 41 Norte 0 1019.4 0.5 43
2020-03-21 11:00:00 19.4 23 Norte 41 Norte 0 1019.7 1.3 44
2020-03-21 10:00:00 18.1 26 Norte 42 Norte 0 1019.6 1.6 46
2020-03-21 09:00:00 17.4 24 Norte 41 Norte 0 1018.9 1.4 51
2020-03-21 08:00:00 16.1 21 Norte 37 Norte 0 1018.4 1 65
2020-03-21 07:00:00 16.2 11 Norte 24 Nordeste 0 1018 0.7 58
2020-03-21 06:00:00 16.2 18 Norte 37 Norte 0 1017.5 0.1 54
2020-03-21 05:00:00 16.1 19 Norte 33 Norte 0 1017.4 -0.6 57
2020-03-21 04:00:00 15.9 22 Norte 39 Norte 0 1017.3 -1.2 55
2020-03-21 03:00:00 16.1 27 Norte 42 Norte 0 1017.4 -1.6 55
2020-03-21 02:00:00 15.9 19 Norte 30 Norte 0 1018 -1.1 65
2020-03-21 01:00:00 16 14 Norte 30 Norte 0 1018.5 -0.1 70
2020-03-21 00:00:00 15.9 15 Norte 32 Norte 0 1019 0.9 75
2020-03-20 23:00:00 16.4 16 Norte 35 Norte 0 1019.1 1.7 77
2020-03-20 22:00:00 16.1 20 Norte 37 Norte 0 1018.6 1.5 81
2020-03-20 21:00:00 16.5 22 Norte 46 Norte 0 1018.1 1.4 81
2020-03-20 20:00:00 16.4 29 Norte 42 Noroeste 0.1 1017.4 1.1 84
2020-03-20 19:00:00 16.9 22 Norte 42 Norte 0 1017.1 1 78
2020-03-20 18:00:00 17.8 23 Norte 41 Norte 0 1016.7 0.4 80
2020-03-20 17:00:00 21.1 32 Norte 48 Norte 0 1016.3 -0.3 53
2020-03-20 16:00:00 21.4 30 Norte 46 Norte 0 1016.1 -1 51
2020-03-20 15:00:00 21 28 Norte 48 Norte 0 1016.3 -0.9 53
2020-03-20 14:00:00 21.9 28 Norte 42 Norte 0 1016.6 -0.5 52
2020-03-20 13:00:00 22.5 32 Norte 48 Norte 0 1017.1 0.2 51
2020-03-20 12:00:00 20.9 31 Norte 45 Norte 0 1017.2 0.9 60
2020-03-20 11:00:00 20.4 32 Norte 45 Norte 0 1017.1 1.7 63
2020-03-20 10:00:00 18.9 28 Norte 45 Noroeste 0 1016.9 2.4 73
2020-03-20 09:00:00 17.5 24 Norte 39 Norte 0 1016.3 2.1 84
2020-03-20 08:00:00 17.5 18 Norte 30 Norte 0 1015.4 1.5 81
2020-03-20 07:00:00 17.1 19 Norte 33 Norte 0 1014.5 0.7 84
2020-03-20 06:00:00 17.4 22 Norte 39 Noroeste 0 1014.2 0.4 83
2020-03-20 05:00:00 17.3 19 Norte 35 Norte 0 1013.9 -0.6 84
2020-03-20 04:00:00 17.4 18 Norte 42 Norte 0 1013.8 -1.2 85
2020-03-20 03:00:00 17.8 25 Norte 45 Norte 0 1013.8 -1.7 81
2020-03-20 02:00:00 17.9 22 Norte 39 Norte 0 1014.5 -1.1 82
2020-03-20 01:00:00 18.1 27 Norte 41 Norte 0 1015 -0.2 80
2020-03-20 00:00:00 18.2 21 Norte 35 Norte 0 1015.5 0.5 79
2020-03-19 23:00:00 18.2 17 Norte 33 Noroeste 0 1015.6 1.2 78
2020-03-19 22:00:00 18.1 10 Oeste 32 Norte 0 1015.2 1 77
2020-03-19 21:00:00 18.2 12 Sudeste 42 Noroeste 0 1015 1.5 77
2020-03-19 20:00:00 18.4 29 Norte 48 Norte 0 1014.4 2.2 76
2020-03-19 19:00:00 19.1 29 Norte 45 Norte 0 1014.2 1.9 74
2020-03-19 18:00:00 19.7 36 Norte 67 Noroeste 0 1013.5 0.7 70
2020-03-19 17:00:00 21 49 Noroeste 67 Norte 0 1012.2 -1.2 64
2020-03-19 16:00:00 21.9 41 Noroeste 63 Noroeste 0 1012.3 -1.8 59
2020-03-19 15:00:00 22.2 38 Noroeste 61 Noroeste 0 1012.8 -1.5 55
2020-03-19 14:00:00 22.9 37 Norte 61 Noroeste 0 1013.4 -1.4 45
2020-03-19 13:00:00 22.8 29 Norte 48 Norte 0 1014.1 -0.4 42
2020-03-19 12:00:00 21.5 31 Norte 46 Norte 0 1014.3 0.8 51
2020-03-19 11:00:00 21 24 Norte 41 Norte 0 1014.8 2 52
2020-03-19 10:00:00 19.6 28 Norte 45 Norte 0 1014.5 2.2 57
2020-03-19 09:00:00 17.8 28 Norte 39 Norte 0 1013.5 1.8 66
2020-03-19 08:00:00 15.7 21 Norte 35 Norte 0 1012.8 1.5 76
2020-03-19 07:00:00 15.1 21 Norte 35 Norte 0 1012.3 0.9 82
2020-03-19 06:00:00 15.3 18 Norte 26 Norte 0.1 1011.7 0 85
2020-03-19 05:00:00 16 19 Noroeste 41 Noroeste 0.2 1011.3 -1 82
2020-03-19 04:00:00 16.2 20 Noroeste 37 Noroeste 0.3 1011.4 -1.3 82
2020-03-19 03:00:00 16.9 21 Noroeste 45 Noroeste 0 1011.7 -1.4 65
2020-03-19 02:00:00 16.5 26 Noroeste 42 Noroeste 0 1012.3 -0.7 64
2020-03-19 01:00:00 16.1 26 Noroeste 41 Norte 0 1012.7 -0.2 62
2020-03-19 00:00:00 15.9 22 Norte 46 Noroeste 0 1013.1 0.3 71
2020-03-18 23:00:00 16.4 29 Noroeste 52 Noroeste 0 1013 0.5 61
2020-03-18 22:00:00 16.8 36 Noroeste 52 Noroeste 0 1012.9 0.5 69
2020-03-18 21:00:00 16.6 33 Noroeste 65 Noroeste 0 1012.8 0.5 74
2020-03-18 20:00:00 15.9 41 Noroeste 61 Noroeste 0.2 1012.5 0 83
2020-03-18 19:00:00 18.1 33 Noroeste 58 Noroeste 0 1012.4 -0.3 57
2020-03-18 18:00:00 18.9 30 Noroeste 48 Noroeste 0 1012.3 -0.9 55
2020-03-18 17:00:00 19.5 30 Noroeste 54 Noroeste 0 1012.5 -1.1 56
2020-03-18 16:00:00 20.5 35 Noroeste 52 Noroeste 0 1012.7 -1.4 48
2020-03-18 15:00:00 20.7 36 Noroeste 48 Norte 0 1013.2 -1.8 45
2020-03-18 14:00:00 21 30 Noroeste 45 Noroeste 0 1013.6 -1.6 43
2020-03-18 13:00:00 20.2 26 Noroeste 46 Noroeste 0 1014.1 -1.3 49
2020-03-18 12:00:00 19.3 25 Noroeste 45 Norte 0 1015 -0.1 55
2020-03-18 11:00:00 19.4 31 Norte 45 Norte 0 1015.2 0.3 54
2020-03-18 10:00:00 16.5 22 Norte 46 Noroeste 0 1015.4 0.6 72
2020-03-18 09:00:00 18 22 Norte 32 Noroeste 0 1015.1 0.6 60
2020-03-18 08:00:00 15.6 15 Norte 32 Noroeste 0 1014.9 0.3 73
2020-03-18 07:00:00 14.7 19 Noroeste 30 Noroeste 0.1 1014.8 0.3 84
2020-03-18 06:00:00 14.8 12 Norte 22 Norte 0 1014.5 -0.4 74
2020-03-18 05:00:00 14.7 10 Norte 45 Norte 0 1014.6 -1.4 78
2020-03-18 04:00:00 14.1 26 Norte 46 Norte 0 1014.5 -1.5 84
2020-03-18 03:00:00 14.6 9 Norte 30 Norte 0 1014.9 -1.6 79
2020-03-18 02:00:00 14.8 29 Norte 39 Norte 0 1016 -1.2 79
2020-03-18 01:00:00 16.3 18 Norte 32 Norte 0 1016 -1.5 51
2020-03-18 00:00:00 15.9 15 Norte 39 Norte 0 1016.5 -0.8 59
2020-03-17 23:00:00 15.4 21 Norte 48 Norte 0 1017.2 0.6 62
2020-03-17 22:00:00 15.5 29 Norte 45 Norte 0 1017.5 1.4 69
2020-03-17 21:00:00 16 33 Norte 48 Norte 0 1017.3 1.5 67
2020-03-17 20:00:00 16.6 21 Norte 46 Norte 0 1016.6 1.1 55
2020-03-17 19:00:00 17.1 30 Norte 52 Noroeste 0 1016.1 0.4 60
2020-03-17 18:00:00 17.7 33 Norte 46 Norte 0 1015.8 -0.1 58
2020-03-17 17:00:00 19.1 34 Norte 50 Norte 0 1015.5 -0.6 50
2020-03-17 16:00:00 19.4 38 Norte 50 Nordeste 0 1015.7 -1.2 49
2020-03-17 15:00:00 19.7 32 Norte 52 Norte 0 1015.9 -1.9 52
2020-03-17 14:00:00 21 31 Norte 54 Norte 0 1016.1 -1.8 46
2020-03-17 13:00:00 19.8 34 Norte 58 Norte 0 1016.9 -1 47
2020-03-17 12:00:00 18.6 31 Norte 54 Norte 0 1017.8 0.2 55
2020-03-17 11:00:00 18.5 41 Norte 55 Norte 0 1017.9 0.8 54
2020-03-17 10:00:00 17.8 38 Norte 61 Norte 0 1017.9 1 56
2020-03-17 09:00:00 16.1 24 Nordeste 65 Norte 0 1017.6 0.9 70
2020-03-17 08:00:00 16.2 25 Norte 41 Norte 0 1017.1 0.9 59
2020-03-17 07:00:00 15.6 21 Norte 45 Norte 0 1016.9 1 67
2020-03-17 06:00:00 14.5 21 Nordeste 46 Norte 0 1016.7 0.5 76
2020-03-17 05:00:00 15.5 31 Norte 54 Norte 0 1016.2 -0.4 71
2020-03-17 04:00:00 16.2 30 Norte 50 Norte 0 1015.9 -1.1 54
2020-03-17 03:00:00 16.3 31 Nordeste 50 Norte 0 1016.2 -1.3 58
2020-03-17 02:00:00 16.4 33 Norte 50 Norte 0 1016.6 -1.4 58
2020-03-17 01:00:00 16.6 28 Norte 50 Norte 0 1017 -1.1 62
2020-03-17 00:00:00 16.6 31 Norte 48 Norte 0 1017.5 -0.4 62
2020-03-16 23:00:00 16.7 31 Norte 58 Norte 0 1018 0.7 54
2020-03-16 22:00:00 16.4 29 Norte 52 Nordeste 0 1018.1 1.2 67
2020-03-16 21:00:00 17.1 34 Norte 52 Norte 0 1017.9 1.2 54
2020-03-16 20:00:00 17.4 26 Norte 42 Norte 0 1017.3 1.2 65
2020-03-16 19:00:00 17.4 36 Norte 50 Norte 0 1016.9 0.9 65
2020-03-16 18:00:00 18.1 36 Norte 59 Norte 0 1016.7 0.6 69
2020-03-16 17:00:00 19.6 38 Norte 61 Norte 0 1016.1 -0.3 63
2020-03-16 16:00:00 20.4 41 Norte 59 Norte 0 1016 -1.2 57
2020-03-16 15:00:00 21.3 40 Norte 59 Norte 0 1016.1 -1.6 55
2020-03-16 14:00:00 22.1 43 Norte 58 Norte 0 1016.4 -1.3 53
2020-03-16 13:00:00 22.1 37 Norte 54 Norte 0 1017.2 -0.5 49
2020-03-16 12:00:00 20.3 41 Norte 55 Norte 0 1017.7 0.2 52
2020-03-16 11:00:00 19.9 39 Norte 55 Norte 0 1017.7 0.7 52
2020-03-16 10:00:00 19.2 41 Norte 54 Norte 0 1017.7 1.2 58
2020-03-16 09:00:00 17.9 35 Norte 50 Norte 0 1017.5 1.3 67
2020-03-16 08:00:00 17.7 23 Norte 45 Norte 0 1017 1.1 67
2020-03-16 07:00:00 17.3 24 Norte 45 Norte 0 1016.5 0.6 74
2020-03-16 06:00:00 17.2 31 Norte 42 Norte 0 1016.2 0.3 72
2020-03-16 05:00:00 17.3 33 Norte 48 Norte 0 1015.9 -0.5 71
2020-03-16 04:00:00 17.3 32 Norte 46 Norte 0 1015.9 -0.6 73
2020-03-16 03:00:00 17 34 Norte 48 Norte 0 1015.9 -0.5 78
2020-03-16 02:00:00 16.6 17 Norte 37 Norte 0 1016.4 -0.2 76
2020-03-16 01:00:00 17.2 23 Norte 48 Norte 0 1016.5 -0.3 73
2020-03-16 00:00:00 17.6 33 Norte 50 Norte 0 1016.4 -0.2 72
2020-03-15 23:00:00 17.9 34 Norte 46 Norte 0 1016.6 0.7 73
2020-03-15 22:00:00 18.1 30 Norte 50 Norte 0 1016.8 1.4 71
2020-03-15 21:00:00 18.1 27 Norte 42 Norte 0 1016.6 1.5 71
2020-03-15 20:00:00 18 28 Norte 46 Norte 0 1015.9 0.9 71
2020-03-15 19:00:00 18.6 26 Norte 41 Norte 0 1015.4 0.5 65
2020-03-15 18:00:00 20 26 Norte 46 Norte 0 1015.1 0.1 56
2020-03-15 17:00:00 20.4 28 Norte 50 Norte 0 1015 -0.4 54
2020-03-15 16:00:00 22 28 Norte 45 Norte 0 1014.9 -1.2 43
2020-03-15 15:00:00 21.9 29 Norte 46 Norte 0 1015 -1.5 47
2020-03-15 14:00:00 21.4 26 Norte 41 Norte 0 1015.4 -1.5 50
2020-03-15 13:00:00 21 27 Norte 41 Norte 0 1016.1 -0.8 47
2020-03-15 12:00:00 21.7 28 Norte 41 Norte 0 1016.5 0.1 44
2020-03-15 11:00:00 19.7 23 Norte 39 Norte 0 1016.9 1.2 55
2020-03-15 10:00:00 19.4 24 Norte 41 Norte 0 1016.9 1.7 53
2020-03-15 09:00:00 18.2 22 Norte 28 Norte 0 1016.4 1.7 63
2020-03-15 08:00:00 16.9 17 Norte 30 Norte 0 1015.7 1.1 68
2020-03-15 07:00:00 16.4 33 Noroeste 45 Norte 0 1015.2 0.4 73
2020-03-15 06:00:00 16.3 27 Norte 39 Norte 0 1014.7 -0.4 71
2020-03-15 05:00:00 16.6 23 Norte 32 Norte 0 1014.6 -1.1 74
2020-03-15 04:00:00 16.4 21 Noroeste 28 Noroeste 0 1014.8 -1.3 72
2020-03-15 03:00:00 15.6 13 Noroeste 17 Norte 0 1015.1 -1.2 81
2020-03-15 02:00:00 14.1 8 Norte 17 Norte 0 1015.7 -0.8 83
2020-03-15 01:00:00 14.9 10 Norte 17 Norte 0 1016.1 -0.6 81
2020-03-15 00:00:00 15.6 12 Norte 37 Norte 0 1016.3 -0.1 79
2020-03-14 23:00:00 15.8 18 Norte 26 Norte 0 1016.5 0.6 75
2020-03-14 22:00:00 16.5 20 Norte 52 Noroeste 0 1016.7 1.5 73
2020-03-14 21:00:00 16.8 18 Norte 39 Norte 0 1016.4 1.3 73
2020-03-14 20:00:00 17.2 19 Norte 37 Norte 0 1015.9 0.8 72
2020-03-14 19:00:00 18.3 29 Norte 42 Noroeste 0 1015.2 0.1 65
2020-03-14 18:00:00 20 27 Norte 39 Noroeste 0 1015.1 -0.1 54
2020-03-14 17:00:00 21 28 Norte 45 Noroeste 0 1015.1 -0.7 54
2020-03-14 16:00:00 22.3 25 Norte 41 Norte 0 1015.1 -1.2 47
2020-03-14 15:00:00 21.8 26 Norte 35 Norte 0 1015.2 -1.8 50
2020-03-14 14:00:00 19.9 23 Nordeste 32 Nordeste 0 1015.8 -1.6 62
2020-03-14 13:00:00 20.5 18 Nordeste 35 Norte 0 1016.3 -1.3 60
2020-03-14 12:00:00 21.3 26 Norte 42 Norte 0 1017 -0.5 56
2020-03-14 11:00:00 21.4 25 Norte 41 Norte 0 1017.4 0.3 50
2020-03-14 10:00:00 20 24 Norte 41 Norte 0 1017.6 0.7 50
2020-03-14 09:00:00 18.8 28 Norte 39 Norte 0 1017.5 1 55
2020-03-14 08:00:00 16.5 17 Norte 26 Norte 0 1017.1 0.7 73
2020-03-14 07:00:00 14.6 13 Norte 18 Norte 0 1016.9 0.4 75
2020-03-14 06:00:00 15.3 13 Norte 21 Nordeste 0 1016.5 -0.4 75
2020-03-14 05:00:00 16.4 14 Norte 22 Norte 0 1016.4 -0.9 71
2020-03-14 04:00:00 17 18 Nordeste 32 Nordeste 0 1016.5 -1.3 72
2020-03-14 03:00:00 16.6 12 Norte 18 Norte 0 1016.9 -1.4 78
2020-03-14 02:00:00 16.9 14 Nordeste 22 Nordeste 0 1017.3 -1.1 75
2020-03-14 01:00:00 17.1 18 Nordeste 30 Nordeste 0 1017.8 -0.6 76
2020-03-14 00:00:00 17.3 18 Nordeste 28 Nordeste 0 1018.3 0.1 75
2020-03-13 23:00:00 17.3 24 Norte 33 Norte 0 1018.4 1.1 72
2020-03-13 22:00:00 17.8 22 Nordeste 32 Nordeste 0 1018.4 1.6 70
2020-03-13 21:00:00 17.8 17 Norte 35 Norte 0 1018.2 1.8 71
2020-03-13 20:00:00 17.9 26 Norte 37 Norte 0 1017.3 1 71
2020-03-13 19:00:00 18.7 29 Norte 42 Norte 0 1016.8 0.4 68
2020-03-13 18:00:00 19.6 28 Norte 45 Norte 0 1016.4 0.1 66
2020-03-13 17:00:00 20.6 32 Norte 52 Norte 0 1016.3 -0.7 60
2020-03-13 16:00:00 21.9 31 Norte 42 Norte 0 1016.4 -1.4 56
2020-03-13 15:00:00 22.7 24 Norte 39 Norte 0 1016.3 -2.1 54
2020-03-13 14:00:00 22.7 25 Nordeste 41 Nordeste 0 1017 -1.5 54
2020-03-13 13:00:00 23 23 Nordeste 39 Nordeste 0 1017.8 -0.7 54
2020-03-13 12:00:00 23.3 19 Norte 37 Norte 0 1018.4 0.3 53
2020-03-13 11:00:00 21.9 24 Norte 42 Norte 0 1018.5 0.9 57
2020-03-13 10:00:00 20.4 30 Norte 45 Norte 0 1018.5 1.3 63
2020-03-13 09:00:00 18.5 28 Norte 39 Norte 0 1018.1 1.4 72
2020-03-13 08:00:00 16.1 22 Norte 32 Norte 0 1017.6 1.1 84
2020-03-13 07:00:00 15.2 16 Norte 30 Norte 0 1017.2 0.6 86
2020-03-13 06:00:00 15 19 Norte 26 Norte 0 1016.7 -0.2 87
2020-03-13 05:00:00 15 18 Norte 22 Norte 0 1016.5 -0.8 87
2020-03-13 04:00:00 14.9 11 Norte 24 Nordeste 0 1016.6 -1.1 87
2020-03-13 03:00:00 16.3 18 Norte 24 Norte 0 1016.9 -0.6 85
2020-03-13 02:00:00 16.2 15 Norte 22 Nordeste 0 1017.3 0.1 86
2020-03-13 01:00:00 16.5 14 Norte 30 Norte 0 1017.7 0.7 87
2020-03-13 00:00:00 16.9 20 Norte 32 Nordeste 0 1017.5 0.9 88
2020-03-12 23:00:00 17.2 15 Norte 33 Norte 0 1017.2 1 86
2020-03-12 22:00:00 17.8 22 Norte 32 Norte 0 1017 1.4 79
2020-03-12 21:00:00 18.2 12 Nordeste 33 Norte 0 1016.6 1 81
2020-03-12 20:00:00 19.1 26 Norte 37 Norte 0 1016.2 0.9 77
2020-03-12 19:00:00 20.5 25 Norte 35 Norte 0 1015.6 0.3 71
2020-03-12 18:00:00 23.4 26 Norte 48 Norte 0 1015.6 0 60
2020-03-12 17:00:00 25.2 19 Nordeste 30 Nordeste 0 1015.3 -0.9 55
2020-03-12 16:00:00 24.9 18 Este 30 Este 0 1015.3 -1.6 58
2020-03-12 15:00:00 24.6 17 Este 24 Este 0 1015.6 -1.7 60
2020-03-12 14:00:00 24.4 15 Este 26 Este 0 1016.2 -1.3 61
2020-03-12 13:00:00 24.2 16 Este 24 Este 0 1016.9 -0.2 60
2020-03-12 12:00:00 25.7 14 Este 21 Este 0 1017.3 0.7 42
2020-03-12 11:00:00 25.9 12 Este 22 Este 0 1017.5 1.3 33
2020-03-12 10:00:00 23.8 10 Este 21 Este 0 1017.1 0.9 51
2020-03-12 09:00:00 21.6 8 Este 15 Nordeste 0 1016.6 0.6 49
2020-03-12 08:00:00 17.8 12 Norte 17 Norte 0 1016.2 0.3 52
2020-03-12 07:00:00 15.7 12 Norte 15 Norte 0 1016.2 0.2 72
2020-03-12 06:00:00 16.6 10 Nordeste 13 Nordeste 0 1016 -0.3 79
2020-03-12 05:00:00 16.8 9 Norte 17 Nordeste 0 1015.9 -1 83
2020-03-12 04:00:00 16.6 4 Nordeste 18 Nordeste 0 1016 -0.6 87
2020-03-12 03:00:00 17.3 12 Nordeste 26 Nordeste 0 1016.3 -0.2 89
2020-03-12 02:00:00 16.8 7 Nordeste 21 Nordeste 0 1016.9 0.1 68
2020-03-12 01:00:00 18.2 15 Este 24 Este 0 1016.6 0.2 73
2020-03-12 00:00:00 17.7 6 Este 21 Norte 0 1016.5 0.6 87
2020-03-11 23:00:00 17.6 4 Oeste 8 Oeste 0 1016.8 1.4 88
2020-03-11 22:00:00 18.4 2 Noroeste 13 Noroeste 0 1016.4 1.2 89
2020-03-11 21:00:00 18.7 4 Sudoeste 11 Oeste 0 1015.9 0.7 82
2020-03-11 20:00:00 20.8 7 Oeste 17 Este 0 1015.4 -0.1 73
2020-03-11 19:00:00 21.6 11 Este 22 Este 0 1015.2 -0.5 69
2020-03-11 18:00:00 22.2 9 Este 18 Este 0 1015.2 -1.1 69
2020-03-11 17:00:00 20.5 15 Este 22 Este 0 1015.5 -1.2 81
2020-03-11 16:00:00 21.4 13 Este 18 Este 0 1015.7 -1.4 75
2020-03-11 15:00:00 21.1 12 Este 21 Este 0 1016.3 -1.1 75
2020-03-11 14:00:00 21.2 12 Este 26 Este 0 1016.7 -1 74
2020-03-11 13:00:00 21 18 Este 32 Este 0 1017.1 -0.2 76
2020-03-11 12:00:00 21.1 21 Este 30 Este 0 1017.4 0.2 74
2020-03-11 11:00:00 20.7 18 Este 26 Este 0 1017.7 0.6 74
2020-03-11 10:00:00 21.8 10 Este 17 Nordeste 0 1017.3 0.4 61
2020-03-11 09:00:00 18.2 12 Nordeste 18 Norte 0 1017.2 0.8 81
2020-03-11 08:00:00 14.3 9 Norte 17 Norte 0 1017.1 0.7 94
2020-03-11 07:00:00 12.5 11 Norte 13 Norte 0 1016.9 0.1 92
2020-03-11 06:00:00 13.8 10 Nordeste 15 Nordeste 0 1016.4 -0.5 92
2020-03-11 05:00:00 14.3 10 Norte 17 Norte 0 1016.4 -0.8 91
2020-03-11 04:00:00 14.7 9 Nordeste 21 Nordeste 0 1016.8 -0.8 90
2020-03-11 03:00:00 16 15 Nordeste 24 Norte 0 1016.9 -1 90
2020-03-11 02:00:00 16.3 19 Norte 35 Norte 0 1017.2 -1.1 87
2020-03-11 01:00:00 16.4 17 Norte 37 Norte 0 1017.6 -0.5 87
2020-03-11 00:00:00 16.8 21 Norte 37 Norte 0 1017.9 0 85
2020-03-10 23:00:00 17.1 22 Norte 32 Norte 0 1018.3 0.7 84
2020-03-10 22:00:00 17.2 17 Norte 26 Norte 0 1018.1 1.1 84
2020-03-10 21:00:00 17.6 15 Norte 32 Norte 0 1017.9 1.2 82
2020-03-10 20:00:00 18.3 24 Norte 33 Norte 0 1017.6 1.1 79
2020-03-10 19:00:00 19.7 25 Norte 37 Norte 0 1017 0.2 72
2020-03-10 18:00:00 22.8 23 Norte 35 Norte 0 1016.7 -0.8 60
2020-03-10 17:00:00 24.8 19 Nordeste 35 Este 0 1016.5 -1.4 52
2020-03-10 16:00:00 21.7 24 Este 39 Este 0 1016.8 -2 70
2020-03-10 15:00:00 21.4 27 Este 39 Este 0 1017.5 -1.9 70
2020-03-10 14:00:00 22.5 25 Este 39 Este 0 1017.9 -1.6 64
2020-03-10 13:00:00 22.2 26 Este 41 Este 0 1018.8 -0.8 66
2020-03-10 12:00:00 24.3 22 Este 37 Este 0 1019.4 0.1 47
2020-03-10 11:00:00 23.3 23 Este 35 Este 0 1019.5 0.6 54
2020-03-10 10:00:00 22.5 14 Norte 28 Norte 0 1019.6 1.4 58
2020-03-10 09:00:00 19.8 17 Nordeste 24 Norte 0 1019.3 1.3 68
2020-03-10 08:00:00 17 10 Norte 35 Norte 0 1018.9 0.9 82
2020-03-10 07:00:00 16.6 26 Norte 37 Norte 0 1018.2 0 82
2020-03-10 06:00:00 16.2 24 Norte 37 Noroeste 0 1018 -0.9 86
2020-03-10 05:00:00 16.1 23 Norte 39 Norte 0 1018 -1.8 88
2020-03-10 04:00:00 16.1 24 Norte 35 Norte 0 1018.2 -2 77
2020-03-10 03:00:00 15.7 19 Norte 26 Norte 0 1018.9 -1.7 70
2020-03-10 02:00:00 15.5 14 Norte 28 Nordeste 0 1019.8 -1.3 78
2020-03-10 01:00:00 16.2 18 Nordeste 26 Norte 0 1020.2 -1 76
2020-03-10 00:00:00 16.7 13 Norte 22 Norte 0 1020.6 -0.3 70
2020-03-09 23:00:00 18 10 Nordeste 24 Nordeste 0 1021.1 0.8 51
2020-03-09 22:00:00 18.2 14 Nordeste 30 Nordeste 0 1021.2 1.2 57
2020-03-09 21:00:00 18.9 17 Nordeste 30 Nordeste 0 1020.9 1.1 54
2020-03-09 20:00:00 19.2 14 Norte 32 Nordeste 0 1020.3 0.8 62
2020-03-09 19:00:00 20.2 18 Nordeste 37 Nordeste 0 1020 0.3 62
2020-03-09 18:00:00 22.2 26 Nordeste 39 Nordeste 0 1019.8 -0.5 63
2020-03-09 17:00:00 24.1 26 Nordeste 39 Nordeste 0 1019.5 -1.8 56
2020-03-09 16:00:00 25.5 26 Nordeste 41 Nordeste 0 1019.7 -2.3 49
2020-03-09 15:00:00 26.3 20 Este 33 Este 0 1020.3 -2.1 47
2020-03-09 14:00:00 25.9 21 Este 32 Este 0 1021.3 -1.1 48
2020-03-09 13:00:00 25.9 18 Este 30 Este 0 1022 -0.4 47
2020-03-09 12:00:00 25.9 17 Este 30 Este 0 1022.4 0.7 39
2020-03-09 11:00:00 26.5 13 Nordeste 28 Nordeste 0 1022.4 1.4 33
2020-03-09 10:00:00 24.4 17 Nordeste 24 Nordeste 0 1022.4 1.9 38
2020-03-09 09:00:00 21.9 6 Este 32 Norte 0 1021.7 1.9 50
2020-03-09 08:00:00 18.5 10 Norte 18 Norte 0 1021 1.4 46
2020-03-09 07:00:00 17.3 12 Norte 24 Norte 0 1020.5 0.6 45
2020-03-09 06:00:00 16.9 16 Norte 30 Norte 0 1019.8 -0.5 55
2020-03-09 05:00:00 15.6 16 Norte 22 Norte 0 1019.6 -1.3 86
2020-03-09 04:00:00 16.5 13 Nordeste 24 Nordeste 0 1019.9 -1.4 88
2020-03-09 03:00:00 17.2 18 Nordeste 39 Nordeste 0 1020.3 -0.9 84
2020-03-09 02:00:00 17.5 24 Nordeste 55 Nordeste 0 1020.9 0.7 83
2020-03-09 01:00:00 17.6 21 Nordeste 37 Nordeste 0 1021.3 1.5 83
2020-03-09 00:00:00 17.6 28 Nordeste 48 Noroeste 0 1021.2 1.9 81
2020-03-08 23:00:00 17.8 33 Norte 50 Norte 0 1020.2 1.9 83
2020-03-08 22:00:00 18.4 31 Norte 46 Norte 0 1019.8 1.9 77
2020-03-08 21:00:00 19.2 34 Norte 48 Noroeste 0 1019.3 1.6 68
2020-03-08 20:00:00 19.2 36 Norte 58 Noroeste 0 1018.3 0.8 70
2020-03-08 19:00:00 20.6 33 Norte 50 Noroeste 0 1017.9 0.2 62
2020-03-08 18:00:00 23.4 30 Norte 41 Norte 0 1017.7 -0.5 52
2020-03-08 17:00:00 25.5 12 Este 18 Este 0 1017.5 -1.4 51
2020-03-08 16:00:00 26.4 10 Este 18 Este 0 1017.7 -1.8 39
2020-03-08 15:00:00 26 13 Este 26 Este 0 1018.2 -1.6 41
2020-03-08 14:00:00 26 14 Este 33 Este 0 1018.9 -0.7 36
2020-03-08 13:00:00 25 21 Este 37 Nordeste 0 1019.5 0.7 45
2020-03-08 12:00:00 23.8 24 Nordeste 42 Nordeste 0 1019.8 1.7 51
2020-03-08 11:00:00 23.8 23 Nordeste 37 Nordeste 0 1019.6 2 50
2020-03-08 10:00:00 22.2 24 Nordeste 45 Nordeste 0 1018.8 1.9 56
2020-03-08 09:00:00 19.9 24 Nordeste 39 Nordeste 0 1018.1 1.7 66
2020-03-08 08:00:00 17.7 16 Nordeste 26 Nordeste 0 1017.6 1.6 71
2020-03-08 07:00:00 15.8 19 Norte 26 Norte 0 1016.9 0.8 88
2020-03-08 06:00:00 17.4 18 Norte 26 Norte 0 1016.4 0.5 70
2020-03-08 05:00:00 16.7 15 Norte 21 Norte 0 1016 -0.1 73
2020-03-08 04:00:00 17.6 15 Nordeste 30 Nordeste 0 1016.1 -0.2 70
2020-03-08 03:00:00 17.9 21 Nordeste 32 Nordeste 0 1015.9 -0.7 72
2020-03-08 02:00:00 17.6 14 Nordeste 26 Norte 0 1016.1 -0.2 76
2020-03-08 01:00:00 17.6 16 Nordeste 35 Nordeste 0 1016.3 -0.1 75
2020-03-08 00:00:00 16.7 15 Norte 30 Norte 0 1016.6 0.3 79
2020-03-07 23:00:00 16.8 23 Norte 41 Norte 0 1016.3 0.9 81
2020-03-07 22:00:00 17.2 27 Norte 37 Norte 0 1016.4 1.6 81
2020-03-07 21:00:00 17.5 29 Norte 58 Norte 0 1016.3 1.7 80
2020-03-07 20:00:00 17.8 35 Norte 48 Norte 0 1015.4 0.9 76
2020-03-07 19:00:00 18.5 30 Norte 54 Norte 0 1014.8 0.2 71
2020-03-07 18:00:00 20.2 37 Norte 54 Norte 0 1014.6 -0.4 63
2020-03-07 17:00:00 21.8 37 Norte 52 Norte 0 1014.5 -1.1 56
2020-03-07 16:00:00 23.1 39 Norte 52 Norte 0 1014.6 -2.4 53
2020-03-07 15:00:00 23.9 36 Norte 46 Norte 0 1015 -3 49
2020-03-07 14:00:00 23.9 33 Norte 54 Nordeste 0 1015.6 -2.8 50
2020-03-07 13:00:00 22.3 34 Nordeste 50 Nordeste 0 1017 -1.6 54
2020-03-07 12:00:00 22.6 32 Norte 50 Nordeste 0 1018 -0.1 53
2020-03-07 11:00:00 20.7 35 Norte 54 Norte 0 1018.4 1.2 58
2020-03-07 10:00:00 18.7 34 Nordeste 50 Norte 0 1018.6 2.2 64
2020-03-07 09:00:00 18.4 35 Norte 45 Norte 0 1018.1 1.8 68
2020-03-07 08:00:00 16.4 25 Norte 45 Norte 0 1017.2 1.2 74
2020-03-07 07:00:00 16.1 29 Norte 45 Nordeste 0 1016.4 0.6 74
2020-03-07 06:00:00 16.4 31 Nordeste 48 Nordeste 0 1016.3 -0.2 75
2020-03-07 05:00:00 16.5 32 Norte 61 Norte 0 1016 -1.6 73
2020-03-07 04:00:00 16.7 47 Norte 67 Norte 0 1015.8 -2 70
2020-03-07 03:00:00 16.6 39 Nordeste 59 Norte 0 1016.5 -2 70
2020-03-07 02:00:00 16.6 35 Norte 55 Norte 0 1017.6 -1.3 70
2020-03-07 01:00:00 16.7 40 Norte 58 Norte 0 1017.8 -1.4 67
2020-03-07 00:00:00 16.9 38 Norte 58 Norte 0 1018.5 -0.2 66
2020-03-06 23:00:00 16.8 37 Norte 52 Norte 0 1018.9 0.4 66
2020-03-06 22:00:00 16.7 33 Norte 68 Norte 0 1019.2 0.3 70
2020-03-06 21:00:00 17 45 Norte 63 Norte 0 1018.7 -0.2 68
2020-03-06 20:00:00 17.2 40 Norte 54 Norte 0 1018.5 0 66
2020-03-06 19:00:00 17.9 36 Norte 58 Norte 0 1018.9 0.4 62
2020-03-06 18:00:00 19.8 40 Norte 61 Norte 0 1018.9 -0.1 58
2020-03-06 17:00:00 20.8 38 Nordeste 59 Norte 0 1018.5 -1.2 51
2020-03-06 16:00:00 21.6 42 Nordeste 68 Nordeste 0 1018.5 -2.4 46
2020-03-06 15:00:00 22.2 42 Norte 63 Nordeste 0 1019 -2.2 44
2020-03-06 14:00:00 22.6 40 Norte 67 Nordeste 0 1019.7 -2.1 46
2020-03-06 13:00:00 21.8 42 Nordeste 68 Nordeste 0 1020.9 -1.2 50
2020-03-06 12:00:00 21.4 44 Nordeste 67 Nordeste 0 1021.2 -0.2 51
2020-03-06 11:00:00 20.1 44 Norte 65 Nordeste 0 1021.8 1.2 54
2020-03-06 10:00:00 19 44 Norte 65 Norte 0 1022.1 1.8 56
2020-03-06 09:00:00 17.9 41 Norte 59 Norte 0 1021.4 1.3 62
2020-03-06 08:00:00 16.8 39 Norte 54 Norte 0 1020.6 0.8 65
2020-03-06 07:00:00 16.9 38 Norte 54 Norte 0 1020.3 0.4 66
2020-03-06 06:00:00 16.8 37 Norte 52 Norte 0 1020.1 -0.5 68
2020-03-06 05:00:00 16.8 40 Norte 55 Norte 0 1019.8 -1.1 73
2020-03-06 04:00:00 16.8 39 Norte 54 Norte 0 1019.9 -1.6 86
2020-03-06 03:00:00 16.9 35 Norte 58 Norte 0 1020.6 -1.1 91
2020-03-06 02:00:00 17.8 31 Norte 45 Norte 0 1020.9 -1 85
2020-03-06 01:00:00 17.5 35 Norte 50 Norte 0 1021.5 -0.4 89
2020-03-06 00:00:00 18.6 35 Norte 48 Norte 0 1021.7 -0.1 83
2020-03-05 23:00:00 19.3 28 Nordeste 50 Norte 0 1021.9 0.7 72
2020-03-05 22:00:00 19 29 Norte 46 Norte 0 1021.9 1.3 76
2020-03-05 21:00:00 18.6 32 Norte 46 Norte 0 1021.8 1.6 76
2020-03-05 20:00:00 18.8 30 Nordeste 46 Norte 0 1021.2 1.4 69
2020-03-05 19:00:00 19 29 Norte 46 Norte 0 1020.6 0.9 71
2020-03-05 18:00:00 20.2 35 Norte 48 Norte 0 1020.2 0.2 64
2020-03-05 17:00:00 21.9 34 Norte 48 Norte 0 1019.8 -0.3 60
2020-03-05 16:00:00 22.6 35 Norte 50 Norte 0 1019.7 -1.3 56
2020-03-05 15:00:00 23.1 36 Norte 48 Norte 0 1020 -1.5 56
2020-03-05 14:00:00 23.3 32 Norte 48 Norte 0 1020.1 -2.1 54
2020-03-05 13:00:00 22 27 Norte 42 Norte 0 1021 -0.6 59
2020-03-05 12:00:00 21.2 26 Norte 42 Norte 0 1021.5 0.3 61
2020-03-05 11:00:00 20.9 27 Norte 39 Norte 0 1022.2 1.6 63
2020-03-05 10:00:00 19.4 23 Norte 39 Norte 0 1021.6 1.9 69
2020-03-05 09:00:00 18.1 25 Norte 39 Norte 0 1021.2 2 76
2020-03-05 08:00:00 17.1 15 Norte 33 Norte 0 1020.6 2.3 81
2020-03-05 07:00:00 16.7 29 Norte 41 Norte 0 1019.7 1 85
2020-03-05 06:00:00 16.4 27 Norte 48 Norte 0 1019.2 0.1 86
2020-03-05 05:00:00 16.2 24 Nordeste 33 Norte 0 1018.3 -1.1 89
2020-03-05 04:00:00 16.1 9 Nordeste 33 Norte 0 1018.7 -1.1 88
2020-03-05 03:00:00 16.5 24 Norte 37 Norte 0 1019.1 -0.9 88
2020-03-05 02:00:00 16.4 13 Nordeste 30 Norte 0 1019.4 -1.1 89
2020-03-05 01:00:00 16.8 18 Nordeste 32 Nordeste 0 1019.8 -0.6 87
2020-03-05 00:00:00 16.9 17 Nordeste 41 Norte 0 1020 0.2 87
2020-03-04 23:00:00 17.3 15 Nordeste 39 Norte 0 1020.5 1.1 86
2020-03-04 22:00:00 17.4 10 Norte 28 Nordeste 0 1020.4 1.8 87
2020-03-04 21:00:00 17.7 21 Nordeste 32 Norte 0 1019.8 1.6 87
2020-03-04 20:00:00 18.4 16 Nordeste 30 Norte 0 1019.4 1.3 83
2020-03-04 19:00:00 19.9 21 Norte 42 Norte 0 1018.6 0.5 76
2020-03-04 18:00:00 21.9 30 Norte 45 Norte 0 1018.2 -0.4 67
2020-03-04 17:00:00 23.6 32 Norte 42 Norte 0 1018.1 -0.6 61
2020-03-04 16:00:00 24.9 28 Norte 50 Noroeste 0 1018.1 -0.9 57
2020-03-04 15:00:00 24.7 29 Norte 50 Noroeste 0 1018.6 -1.2 56
2020-03-04 14:00:00 25.9 30 Norte 50 Norte 0 1018.7 -1.5 50
2020-03-04 13:00:00 26.2 37 Norte 50 Norte 0 1019 -1 51
2020-03-04 12:00:00 25.1 39 Norte 52 Norte 0 1019.8 0.3 55
2020-03-04 11:00:00 23.5 34 Norte 50 Norte 0 1020.2 1.1 60
2020-03-04 10:00:00 21.6 37 Norte 52 Norte 0 1020 1.4 67
2020-03-04 09:00:00 19.5 32 Norte 54 Norte 0 1019.5 0.9 77
2020-03-04 08:00:00 17.2 36 Norte 54 Norte 0 1019.1 0.2 88
2020-03-04 07:00:00 16.8 39 Norte 54 Norte 0 1018.6 -0.6 89
2020-03-04 06:00:00 16.7 33 Norte 52 Norte 0 1018.6 -1.3 88
2020-03-04 05:00:00 16.7 35 Norte 50 Norte 0 1018.9 -1.4 88
2020-03-04 04:00:00 16.6 33 Norte 45 Norte 0 1019.2 -1.8 88
2020-03-04 03:00:00 16.7 28 Norte 45 Norte 0 1019.9 -1.6 84
2020-03-04 02:00:00 16.8 32 Norte 45 Norte 0 1020.3 -1.4 88
2020-03-04 01:00:00 16.9 24 Norte 48 Norte 0 1021 -0.6 80
2020-03-04 00:00:00 17.4 35 Norte 50 Norte 0 1021.5 0 87
2020-03-03 23:00:00 17.6 32 Norte 50 Norte 0 1021.7 0.5 86
2020-03-03 22:00:00 17.6 32 Norte 50 Norte 0 1021.6 0.8 87
2020-03-03 21:00:00 17.8 31 Norte 46 Norte 0 1021.5 0.9 85
2020-03-03 20:00:00 18.4 30 Norte 42 Norte 0 1021.2 1 81
2020-03-03 19:00:00 19.6 27 Norte 37 Norte 0 1020.8 1 74
2020-03-03 18:00:00 21.8 25 Norte 41 Norte 0 1020.6 0.4 62
2020-03-03 17:00:00 23 29 Norte 50 Norte 0 1020.2 -0.7 59
2020-03-03 16:00:00 23.1 39 Norte 54 Norte 0 1019.8 -2.1 60
2020-03-03 15:00:00 23.9 40 Norte 52 Norte 0 1020.2 -2.2 57
2020-03-03 14:00:00 24.8 34 Norte 45 Norte 0 1020.9 -1.6 53
2020-03-03 13:00:00 24.9 29 Norte 39 Norte 0 1021.9 -0.6 52
2020-03-03 12:00:00 23.8 24 Norte 37 Noroeste 0 1022.4 0.3 56
2020-03-03 11:00:00 22.4 21 Nordeste 35 Nordeste 0 1022.5 1 63
2020-03-03 10:00:00 20.8 21 Nordeste 37 Nordeste 0 1022.5 1.4 67
2020-03-03 09:00:00 18.8 21 Nordeste 37 Nordeste 0 1022.1 1.5 75
2020-03-03 08:00:00 17.5 21 Nordeste 33 Nordeste 0 1021.5 1.1 81
2020-03-03 07:00:00 17.4 14 Nordeste 30 Nordeste 0 1021.1 0.6 82
2020-03-03 06:00:00 16.9 13 Nordeste 39 Norte 0 1020.6 -0.1 88
2020-03-03 05:00:00 16.8 25 Norte 37 Norte 0 1020.4 -0.8 88
2020-03-03 04:00:00 16.9 23 Norte 41 Norte 0 1020.5 -1.2 85
2020-03-03 03:00:00 16.8 26 Norte 41 Norte 0 1020.7 -1.3 86
2020-03-03 02:00:00 17.2 33 Norte 42 Norte 0 1021.2 -1 85
2020-03-03 01:00:00 17.2 23 Norte 33 Norte 0 1021.7 -0.6 88
2020-03-03 00:00:00 17.2 16 Norte 28 Norte 0 1022 0.1 88
2020-03-02 23:00:00 17.3 23 Norte 32 Norte 0 1022.2 0.8 87
2020-03-02 22:00:00 17.8 24 Norte 35 Norte 0 1022.3 1.3 85
2020-03-02 21:00:00 17.8 22 Norte 32 Norte 0 1021.9 1.3 84
2020-03-02 20:00:00 18.2 22 Norte 35 Norte 0 1021.4 0.8 80
2020-03-02 19:00:00 19.4 26 Norte 42 Norte 0 1021 0.6 72
2020-03-02 18:00:00 20.9 33 Norte 46 Norte 0 1020.6 -0.2 63
2020-03-02 17:00:00 22.9 33 Norte 45 Norte 0 1020.6 -0.7 59
2020-03-02 16:00:00 23 32 Norte 45 Norte 0 1020.4 -1.8 58
2020-03-02 15:00:00 24.1 32 Norte 54 Norte 0 1020.8 -1.8 53
2020-03-02 14:00:00 24.1 31 Norte 46 Norte 0 1021.3 -1.6 53
2020-03-02 13:00:00 23.8 31 Norte 52 Norte 0 1022.2 -0.2 56
2020-03-02 12:00:00 22.9 29 Norte 42 Norte 0 1022.6 0.6 59
2020-03-02 11:00:00 22.7 27 Norte 39 Norte 0 1022.9 1.2 60
2020-03-02 10:00:00 21.4 26 Norte 35 Norte 0 1022.4 1.5 65
2020-03-02 09:00:00 19.4 19 Norte 30 Norte 0 1022 1.6 77
2020-03-02 08:00:00 17.8 18 Norte 32 Norte 0 1021.7 1.2 85
2020-03-02 07:00:00 17.7 19 Norte 30 Norte 0 1020.9 0.4 85
2020-03-02 06:00:00 17.5 18 Norte 32 Norte 0 1020.4 -0.5 86
2020-03-02 05:00:00 17.5 17 Norte 28 Norte 0 1020.5 -1 87
2020-03-02 04:00:00 17.1 14 Norte 22 Norte 0 1020.5 -1.3 89
2020-03-02 03:00:00 17.4 12 Norte 22 Norte 0 1020.9 -1.3 87
2020-03-02 02:00:00 17.6 15 Norte 22 Norte 0 1021.5 -0.5 87
2020-03-02 01:00:00 17.9 17 Norte 32 Norte 0 1021.8 0.2 85
2020-03-02 00:00:00 18.3 23 Norte 33 Norte 0 1022.2 1.1 84
2020-03-01 23:00:00 18.4 17 Norte 28 Norte 0 1022 1.4 83
2020-03-01 22:00:00 18.3 15 Norte 24 Norte 0 1021.6 1.5 83
2020-03-01 21:00:00 18.9 16 Norte 42 Noroeste 0 1021.1 1.2 79
2020-03-01 20:00:00 18.9 19 Norte 35 Noroeste 0 1020.6 0.9 78
2020-03-01 19:00:00 19.6 18 Norte 33 Norte 0 1020.1 0.7 70
2020-03-01 18:00:00 20.4 21 Norte 39 Noroeste 0 1019.9 0.6 67
2020-03-01 17:00:00 21.6 22 Norte 39 Noroeste 0 1019.7 0 64
2020-03-01 16:00:00 22.8 26 Norte 42 Norte 0 1019.4 -1 57
2020-03-01 15:00:00 23.5 24 Norte 42 Norte 0 1019.3 -2.1 56
2020-03-01 14:00:00 22.8 10 Nordeste 32 Este 0 1019.7 -1.8 60
2020-03-01 13:00:00 23.4 11 Nordeste 45 Este 0 1020.4 -1.1 56
2020-03-01 12:00:00 22 17 Este 33 Este 0 1021.4 -0.4 62
2020-03-01 11:00:00 21.3 19 Este 30 Este 0 1021.5 0 64
2020-03-01 10:00:00 20.7 13 Este 33 Norte 0 1021.5 0.4 62
2020-03-01 09:00:00 18.1 19 Nordeste 39 Norte 0 1021.8 1.1 73
2020-03-01 08:00:00 17.3 24 Norte 37 Norte 0 1021.5 0.9 76
2020-03-01 07:00:00 16.2 23 Norte 37 Norte 0 1021.1 0.3 80
2020-03-01 06:00:00 15.6 9 Nordeste 26 Norte 0 1020.7 -0.4 83
2020-03-01 05:00:00 15.4 6 Nordeste 15 Norte 0 1020.6 -0.9 84
2020-03-01 04:00:00 15.4 7 Norte 24 Norte 0 1020.8 -1.3 81
2020-03-01 03:00:00 16.4 19 Norte 28 Norte 0 1021.1 -1.3 80
2020-03-01 02:00:00 16.4 15 Norte 24 Norte 0 1021.5 -1 80
2020-03-01 01:00:00 16.2 7 Nordeste 21 Norte 0 1022.1 -0.3 82
2020-03-01 00:00:00 15.6 4 Nordeste 13 Norte 0 1022.4 0.6 84
2020-02-29 23:00:00 16.3 9 Nordeste 18 Nordeste 0 1022.5 1.3 81
2020-02-29 22:00:00 16.8 10 Nordeste 30 Norte 0 1022.4 1.8 79
2020-02-29 21:00:00 17.2 15 Norte 30 Norte 0 1021.8 1.8 76
2020-02-29 20:00:00 17.6 23 Norte 46 Nordeste 0 1021.2 1.4 74
2020-02-29 19:00:00 18.2 28 Norte 41 Norte 0 1020.6 1.1 71
2020-02-29 18:00:00 19.7 32 Norte 42 Norte 0 1020 0.1 65
2020-02-29 17:00:00 21.5 33 Norte 41 Norte 0 1019.8 -0.7 58
2020-02-29 16:00:00 23 24 Norte 37 Norte 0 1019.5 -1.6 52
2020-02-29 15:00:00 23.3 25 Norte 42 Norte 0 1019.9 -1.5 50
2020-02-29 14:00:00 23.9 23 Norte 37 Norte 0 1020.5 -1.6 48
2020-02-29 13:00:00 23.1 17 Nordeste 35 Nordeste 0 1021.1 -1.2 51
2020-02-29 12:00:00 22.2 19 Nordeste 35 Este 0 1021.4 -0.6 52
2020-02-29 11:00:00 21.1 20 Nordeste 35 Norte 0 1022.1 1 56
2020-02-29 10:00:00 20.3 20 Nordeste 32 Nordeste 0 1022.3 1.5 59
2020-02-29 09:00:00 18.2 18 Nordeste 28 Nordeste 0 1022 1.9 67
2020-02-29 08:00:00 16.8 10 Norte 15 Norte 0 1021.1 1.2 74
2020-02-29 07:00:00 15.7 10 Norte 17 Norte 0 1020.8 0.6 77
2020-02-29 06:00:00 16.5 11 Nordeste 22 Norte 0 1020.1 -0.5 75
2020-02-29 05:00:00 16.9 14 Norte 26 Nordeste 0 1019.9 -0.7 73
2020-02-29 04:00:00 16.3 8 Nordeste 30 Norte 0 1020.2 -0.6 75
2020-02-29 03:00:00 17.1 20 Norte 35 Norte 0 1020.6 -0.3 73
2020-02-29 02:00:00 16.5 19 Norte 28 Norte 0 1020.6 -0.1 76
2020-02-29 01:00:00 16.8 15 Norte 24 Nordeste 0 1020.8 0.6 75
2020-02-29 00:00:00 16.9 15 Norte 35 Norte 0 1020.9 1.6 75